Alexandria, NE (68303)

11:13 PM CST on March 06, 2015 (GMT -0600)
Crystal Springs Campground | Change Station
CLOSE
Current Station
Personal Weather Station
Location: Fairbury, NE
Elevation: 1424 ft
Nearby Weather Stations

Elev 1424 ft 40.13 °N, 97.21 °W | Updated 4 seconds ago

Clear
Clear
41.7 °F
Feels Like 37 °F
N
8.0
Wind Variable Wind from WSW
Gusts 12.0 mph

Today
High -- | Low -- °F
--% Chance of Precip.
Yesterday
High -- | Low -- °F
Precip. -- in
6:55 AM 6:26 PM
Full, 98% visible
Pressure 30.15 in
Visibility 10.0 miles
Clouds Clear
Windchill 37 °F
Dew Point 23 °F
Humidity 47%
Rainfall in
Snow Depth Not available.
UV 0 out of 12
Pollen 3.80 out of 12
Air Quality Not available.
Flu Activity Not available.
METAR KHJH 070455Z AUTO 24007KT 10SM CLR 06/M08 A3015 RMK AO2 T00561082

More Conditions Fewer Conditions

Pressure 30.15 in
Visibility 10.0 miles
Clouds Clear
Windchill 37 °F
Dew Point 23 °F
Humidity 47%
Rainfall in
Snow Depth Not available.
UV 0 out of 12
Pollen 3.80 out of 12
Air Quality Not available.
Flu Activity Not available.
METAR KHJH 070455Z AUTO 24007KT 10SM CLR 06/M08 A3015 RMK AO2 T00561082

More Conditions Fewer Conditions

10-Day Weather Forecast

Almanac

Astronomy

Mar. 06, 2015 Rise Set
Actual Time
Civil Twilight
Nautical Twilight
Astronomical Twilight
Moon
Length of Visible Light
Length of Day
Tomorrow will be .
, % of the Moon is Illuminated

Today's Extremes

State Highs State Lows

Community

WunderPhotos

Upload Photos

1,803,548 photos uploaded!

WunderBlogs® & News

Nearby

Air Quality

  Air Quality AQ Index Pollutant
Not available.

Snow Depth

Station Depth Elevation

Earthquake Activity

City Distance Mag. Time & Date
Minimum magnitude displayed is 2.5.

Coastal Water Temperatures

Place Temperature

Nearby Weather Stations